createdAt,value
2017-10-24T00:01:26.816Z,12.00
2017-10-24T00:03:54.305Z,12.00
2017-10-24T00:06:21.833Z,12.10
2017-10-24T00:08:49.354Z,12.10
2017-10-24T00:11:16.860Z,12.00
2017-10-24T00:13:44.385Z,12.10
2017-10-24T00:16:12.682Z,12.10
2017-10-24T00:18:40.178Z,12.10
2017-10-24T00:21:07.736Z,12.10
2017-10-24T00:23:35.224Z,12.10
2017-10-24T00:26:03.485Z,12.00
2017-10-24T00:28:31.013Z,11.90
2017-10-24T00:30:58.543Z,11.90
2017-10-24T00:33:26.048Z,11.90
2017-10-24T00:35:53.657Z,11.90
2017-10-24T00:38:21.169Z,12.00
2017-10-24T00:40:49.511Z,12.00
2017-10-24T00:43:17.366Z,12.00
2017-10-24T00:45:44.866Z,11.90
2017-10-24T00:48:12.369Z,12.00
2017-10-24T00:50:40.639Z,12.00
2017-10-24T00:53:08.895Z,12.00
2017-10-24T00:55:36.468Z,12.00
2017-10-24T00:58:04.728Z,11.90
2017-10-24T01:00:33.021Z,11.90
2017-10-24T01:03:01.310Z,11.90
2017-10-24T01:05:28.844Z,11.90
2017-10-24T01:07:57.149Z,12.00
2017-10-24T01:10:24.636Z,11.90
2017-10-24T01:12:52.152Z,12.00
2017-10-24T01:15:19.654Z,12.00
2017-10-24T01:17:47.161Z,12.00
2017-10-24T01:20:15.461Z,11.90
2017-10-24T01:22:42.957Z,11.90
2017-10-24T01:25:10.508Z,11.90
2017-10-24T01:27:38.100Z,11.90
2017-10-24T01:30:06.394Z,11.80
2017-10-24T01:32:33.908Z,11.80
2017-10-24T01:35:01.436Z,11.80
2017-10-24T01:37:28.961Z,11.80
2017-10-24T01:39:57.217Z,11.80
2017-10-24T01:42:25.519Z,11.80
2017-10-24T01:44:53.024Z,11.90
2017-10-24T01:47:20.546Z,11.80
2017-10-24T01:49:48.036Z,11.80
2017-10-24T01:52:15.579Z,11.80
2017-10-24T01:54:43.096Z,11.80
2017-10-24T01:57:10.689Z,11.80
2017-10-24T01:59:38.206Z,11.80
2017-10-24T02:02:06.480Z,11.80
2017-10-24T02:04:34.777Z,11.80
2017-10-24T02:07:02.277Z,11.80
2017-10-24T02:09:29.789Z,11.80
2017-10-24T02:11:57.341Z,11.80
2017-10-24T02:14:25.632Z,11.80
2017-10-24T02:16:53.130Z,11.70
2017-10-24T02:19:20.629Z,11.80
2017-10-24T02:21:48.214Z,11.80
2017-10-24T02:24:15.707Z,11.80
2017-10-24T02:26:43.312Z,11.80
2017-10-24T02:29:11.568Z,11.80
2017-10-24T02:31:40.277Z,11.80
2017-10-24T02:34:07.781Z,11.90
2017-10-24T02:36:35.280Z,11.90
2017-10-24T02:39:03.577Z,11.80
2017-10-24T02:41:31.073Z,11.90
2017-10-24T02:43:58.681Z,11.90
2017-10-24T02:46:27.081Z,11.90
2017-10-24T02:48:54.603Z,11.90
2017-10-24T02:51:22.877Z,11.90
2017-10-24T02:53:51.190Z,12.00
2017-10-24T02:56:18.681Z,11.90
2017-10-24T02:58:46.281Z,12.00
2017-10-24T03:01:13.836Z,12.00
2017-10-24T03:03:41.339Z,12.00
2017-10-24T03:06:08.833Z,11.90
2017-10-24T03:08:36.343Z,11.90
2017-10-24T03:11:03.862Z,12.00
2017-10-24T03:13:32.252Z,11.90
2017-10-24T03:15:59.747Z,11.90
2017-10-24T03:18:27.276Z,11.80
2017-10-24T03:20:54.769Z,11.80
2017-10-24T03:23:22.276Z,11.80
2017-10-24T03:25:49.788Z,11.80
2017-10-24T03:28:17.289Z,11.80
2017-10-24T03:30:44.854Z,11.90
2017-10-24T03:33:12.371Z,11.90
2017-10-24T03:35:39.932Z,11.80
2017-10-24T03:38:07.424Z,11.80
2017-10-24T03:40:34.989Z,11.80
2017-10-24T03:43:02.501Z,11.90
2017-10-24T03:45:30.005Z,11.90
2017-10-24T03:47:57.563Z,11.90
2017-10-24T03:50:25.060Z,11.90
2017-10-24T03:52:52.570Z,11.80
2017-10-24T03:55:20.105Z,11.80
2017-10-24T03:57:48.402Z,11.90
2017-10-24T04:00:15.923Z,11.90
2017-10-24T04:02:43.426Z,11.90
2017-10-24T04:05:10.956Z,12.00
2017-10-24T04:07:39.231Z,12.00
2017-10-24T04:10:07.503Z,12.00
2017-10-24T04:12:35.034Z,12.00
2017-10-24T04:15:02.556Z,12.00
2017-10-24T04:17:30.086Z,12.00
2017-10-24T04:19:58.365Z,11.90
2017-10-24T04:22:26.628Z,11.90
2017-10-24T04:24:54.913Z,11.90
2017-10-24T04:27:23.203Z,11.90
2017-10-24T04:29:50.702Z,11.90
2017-10-24T04:32:18.232Z,11.90
2017-10-24T04:34:45.759Z,11.90
2017-10-24T04:37:14.026Z,11.90
2017-10-24T04:39:42.281Z,12.00
2017-10-24T04:42:09.888Z,11.90
2017-10-24T04:44:37.460Z,12.00
2017-10-24T04:47:05.017Z,11.90
2017-10-24T04:49:32.532Z,11.90
2017-10-24T04:52:00.050Z,11.90
2017-10-24T04:54:27.557Z,11.90
2017-10-24T04:56:55.842Z,11.80
2017-10-24T04:59:23.336Z,11.80
2017-10-24T05:01:50.837Z,11.80
2017-10-24T05:04:18.375Z,11.90
2017-10-24T05:06:45.886Z,11.90
2017-10-24T05:09:13.421Z,11.90
2017-10-24T05:11:41.693Z,11.90
2017-10-24T05:14:09.977Z,11.90
2017-10-24T05:16:38.246Z,11.90
2017-10-24T05:19:06.557Z,11.80
2017-10-24T05:21:34.060Z,11.80
2017-10-24T05:24:01.562Z,11.80
2017-10-24T05:26:29.088Z,11.80
2017-10-24T05:28:57.360Z,11.80
2017-10-24T05:31:25.656Z,11.80
2017-10-24T05:33:53.170Z,11.80
2017-10-24T05:36:20.775Z,11.70
2017-10-24T05:38:48.310Z,11.70
2017-10-24T05:41:16.616Z,11.70
2017-10-24T05:43:44.108Z,11.70
2017-10-24T05:46:11.608Z,11.70
2017-10-24T05:48:39.904Z,11.60
2017-10-24T05:51:07.393Z,11.60
2017-10-24T05:53:34.920Z,11.60
2017-10-24T05:56:02.412Z,11.60
2017-10-24T05:58:29.900Z,11.60
2017-10-24T06:00:58.946Z,11.50
2017-10-24T06:03:26.480Z,11.50
2017-10-24T06:05:54.041Z,11.50
2017-10-24T06:08:21.545Z,11.50
2017-10-24T06:10:49.048Z,11.50
2017-10-24T06:13:17.328Z,11.50
2017-10-24T06:15:44.834Z,11.50
2017-10-24T06:18:12.353Z,11.50
2017-10-24T06:20:39.845Z,11.40
2017-10-24T06:23:07.493Z,11.40
2017-10-24T06:25:35.009Z,11.40
2017-10-24T06:28:03.305Z,11.50
2017-10-24T06:30:30.851Z,11.50
2017-10-24T06:32:58.342Z,11.50
2017-10-24T06:35:25.985Z,11.40
2017-10-24T06:37:53.497Z,11.40
2017-10-24T06:40:21.767Z,11.50
2017-10-24T06:42:49.296Z,11.50
2017-10-24T06:45:16.809Z,11.50
2017-10-24T06:47:45.194Z,11.60
2017-10-24T06:50:12.707Z,11.60
2017-10-24T06:52:40.233Z,11.60
2017-10-24T06:55:07.768Z,11.60
2017-10-24T06:57:35.292Z,11.70
2017-10-24T07:00:02.868Z,11.70
2017-10-24T07:02:31.136Z,11.70
2017-10-24T07:04:59.432Z,11.80
2017-10-24T07:07:26.938Z,11.80
2017-10-24T07:09:54.464Z,11.80
2017-10-24T07:12:21.984Z,11.80
2017-10-24T07:14:50.232Z,11.80
2017-10-24T07:17:17.770Z,11.70
2017-10-24T07:19:45.309Z,11.80
2017-10-24T07:22:12.837Z,11.80
2017-10-24T07:24:41.107Z,11.90
2017-10-24T07:27:09.415Z,11.90
2017-10-24T07:29:36.917Z,11.90
2017-10-24T07:32:04.420Z,12.00
2017-10-24T07:34:31.977Z,12.00
2017-10-24T07:36:59.496Z,12.10
2017-10-24T07:39:27.014Z,12.20
2017-10-24T07:41:54.537Z,12.20
2017-10-24T07:44:22.849Z,12.20
2017-10-24T07:46:50.382Z,12.20
2017-10-24T07:49:18.645Z,12.10
2017-10-24T07:51:46.957Z,12.10
2017-10-24T07:54:14.457Z,12.10
2017-10-24T07:56:42.720Z,12.20
2017-10-24T07:59:10.334Z,12.20
2017-10-24T08:01:37.853Z,12.20
2017-10-24T08:04:05.362Z,12.20
2017-10-24T08:06:32.895Z,12.30
2017-10-24T08:09:01.276Z,12.30
2017-10-24T08:11:28.768Z,12.30
2017-10-24T08:13:56.275Z,12.40
2017-10-24T08:16:24.540Z,12.50
2017-10-24T08:18:52.062Z,12.50
2017-10-24T08:21:19.676Z,12.50
2017-10-24T08:23:47.968Z,12.60
2017-10-24T08:26:15.542Z,12.60
2017-10-24T08:28:43.075Z,12.60
2017-10-24T08:31:10.922Z,12.70
2017-10-24T08:33:39.185Z,12.80
2017-10-24T08:36:07.504Z,12.80
2017-10-24T08:38:35.027Z,12.80
2017-10-24T08:41:02.565Z,12.80
2017-10-24T08:43:30.088Z,12.90
2017-10-24T08:45:57.580Z,13.00
2017-10-24T08:48:25.119Z,13.00
2017-10-24T08:50:52.603Z,13.10
2017-10-24T08:53:20.887Z,13.10
2017-10-24T08:55:48.442Z,13.00
2017-10-24T08:58:17.446Z,13.00
2017-10-24T09:00:45.766Z,13.00
2017-10-24T09:03:13.272Z,12.90
2017-10-24T09:05:40.855Z,13.00
2017-10-24T09:08:15.258Z,13.00
2017-10-24T09:14:04.966Z,13.00
2017-10-24T09:22:36.864Z,13.20
2017-10-24T09:25:05.154Z,13.30
2017-10-24T09:27:32.688Z,13.30
2017-10-24T09:30:00.973Z,13.40
2017-10-24T09:32:39.271Z,13.40
2017-10-24T09:35:07.555Z,13.50
2017-10-24T09:37:35.832Z,13.50
2017-10-24T09:40:04.117Z,13.40
2017-10-24T09:42:31.672Z,13.40
2017-10-24T09:44:59.189Z,13.60
2017-10-24T09:47:26.708Z,13.70
2017-10-24T09:49:57.789Z,13.80
2017-10-24T09:52:25.326Z,13.80
2017-10-24T09:54:52.838Z,13.90
2017-10-24T09:57:20.338Z,13.90
2017-10-24T09:59:47.890Z,13.90
2017-10-24T10:02:15.420Z,14.00
2017-10-24T10:04:42.962Z,14.10
2017-10-24T10:07:11.224Z,14.30
2017-10-24T10:09:38.832Z,14.30
2017-10-24T10:12:09.247Z,14.40
2017-10-24T10:14:36.770Z,14.50
2017-10-24T10:17:05.073Z,14.60
2017-10-24T10:19:32.594Z,14.60
2017-10-24T10:22:00.089Z,14.70
2017-10-24T10:24:28.568Z,14.80
2017-10-24T10:26:56.130Z,14.80
2017-10-24T10:29:23.675Z,14.80
2017-10-24T10:31:51.968Z,14.80
2017-10-24T10:34:19.499Z,14.80
2017-10-24T10:36:47.809Z,14.90
2017-10-24T10:39:15.310Z,14.90
2017-10-24T10:41:42.836Z,14.80
2017-10-24T10:44:10.329Z,14.70
2017-10-24T10:46:37.949Z,14.70
2017-10-24T10:49:05.479Z,14.80
2017-10-24T10:51:32.979Z,14.80
2017-10-24T10:54:00.500Z,14.70
2017-10-24T10:56:28.001Z,14.80
2017-10-24T10:58:55.516Z,14.80
2017-10-24T11:01:23.015Z,14.90
2017-10-24T11:03:50.548Z,14.90
2017-10-24T11:06:18.072Z,14.90
2017-10-24T11:08:46.329Z,15.00
2017-10-24T11:11:13.865Z,15.00
2017-10-24T11:13:41.382Z,15.00
2017-10-24T11:16:08.872Z,15.00
2017-10-24T11:18:36.397Z,15.00
2017-10-24T11:21:03.969Z,15.10
2017-10-24T11:23:31.530Z,15.10
2017-10-24T11:25:59.027Z,15.10
2017-10-24T11:28:27.314Z,15.30
2017-10-24T11:30:54.833Z,15.30
2017-10-24T11:33:22.353Z,15.40
2017-10-24T11:35:49.916Z,15.60
2017-10-24T11:38:17.448Z,15.90
2017-10-24T11:40:45.712Z,16.80
2017-10-24T11:43:13.211Z,16.80
2017-10-24T11:45:40.733Z,17.20
2017-10-24T11:48:09.017Z,18.10
2017-10-24T11:50:37.290Z,18.20
2017-10-24T11:53:05.562Z,18.60
2017-10-24T11:55:33.856Z,18.80
2017-10-24T11:58:02.115Z,19.20
2017-10-24T12:00:30.390Z,19.20
2017-10-24T12:02:58.670Z,19.10
2017-10-24T12:05:26.168Z,19.10
2017-10-24T12:07:53.787Z,18.80
2017-10-24T12:10:22.048Z,18.60
2017-10-24T12:12:50.328Z,18.60
2017-10-24T12:15:18.754Z,18.60
2017-10-24T12:17:46.245Z,18.50
2017-10-24T12:20:13.761Z,18.70
2017-10-24T12:22:41.280Z,18.80
2017-10-24T12:25:08.768Z,19.20
2017-10-24T12:27:36.337Z,19.40
2017-10-24T12:30:03.832Z,19.50
2017-10-24T12:32:31.368Z,19.70
2017-10-24T12:34:58.867Z,19.70
2017-10-24T12:37:26.384Z,19.60
2017-10-24T12:39:53.926Z,19.40
2017-10-24T12:42:25.070Z,19.20
2017-10-24T12:44:53.195Z,19.20
2017-10-24T12:47:20.697Z,19.30
2017-10-24T12:49:48.225Z,19.30
2017-10-24T12:52:16.497Z,19.00
2017-10-24T12:54:44.756Z,18.90
2017-10-24T12:57:14.776Z,18.80
2017-10-24T12:59:42.744Z,18.70
2017-10-24T13:02:10.276Z,18.60
2017-10-24T13:04:37.771Z,18.60
2017-10-24T13:07:06.073Z,18.80
2017-10-24T13:09:33.577Z,18.80
2017-10-24T13:12:01.112Z,19.30
2017-10-24T13:14:28.629Z,20.10
2017-10-24T13:16:56.884Z,21.00
2017-10-24T13:19:24.405Z,21.00
2017-10-24T13:21:51.901Z,20.80
2017-10-24T13:24:20.188Z,20.70
2017-10-24T13:26:48.484Z,21.00
2017-10-24T13:29:16.010Z,20.90
2017-10-24T13:31:44.275Z,20.90
2017-10-24T13:34:11.808Z,20.80
2017-10-24T13:36:39.344Z,20.80
2017-10-24T13:39:06.833Z,20.60
2017-10-24T13:41:34.519Z,20.30
2017-10-24T13:44:02.778Z,20.00
2017-10-24T13:46:30.310Z,20.00
2017-10-24T13:48:57.804Z,19.90
2017-10-24T13:51:26.837Z,19.30
2017-10-24T13:53:54.334Z,19.30
2017-10-24T13:56:21.872Z,19.10
2017-10-24T13:58:49.420Z,19.00
2017-10-24T14:01:16.925Z,19.00
2017-10-24T14:03:45.244Z,18.70
2017-10-24T14:06:18.526Z,18.70
2017-10-24T14:08:51.805Z,18.80
2017-10-24T14:11:20.104Z,18.80
2017-10-24T14:13:47.596Z,18.80
2017-10-24T14:16:15.135Z,18.80
2017-10-24T14:18:42.661Z,18.80
2017-10-24T14:21:10.198Z,18.70
2017-10-24T14:23:38.468Z,18.60
2017-10-24T14:26:05.980Z,18.60
2017-10-24T14:28:33.516Z,18.50
2017-10-24T14:31:01.013Z,18.40
2017-10-24T14:33:28.550Z,18.30
2017-10-24T14:35:56.040Z,18.30
2017-10-24T14:38:23.568Z,18.30
2017-10-24T14:40:51.090Z,18.30
2017-10-24T14:43:19.362Z,18.30
2017-10-24T14:45:48.041Z,18.20
2017-10-24T14:48:15.635Z,18.20
2017-10-24T14:50:43.140Z,18.20
2017-10-24T14:53:10.670Z,18.20
2017-10-24T14:55:38.159Z,18.20
2017-10-24T14:58:05.765Z,18.20
2017-10-24T15:00:33.270Z,18.10
2017-10-24T15:03:00.790Z,18.10
2017-10-24T15:05:28.329Z,18.00
2017-10-24T15:07:55.823Z,18.00
2017-10-24T15:10:23.379Z,17.90
2017-10-24T15:12:50.872Z,17.90
2017-10-24T15:15:19.187Z,17.80
2017-10-24T15:17:46.680Z,17.80
2017-10-24T15:20:14.183Z,17.80
2017-10-24T15:22:41.700Z,17.80
2017-10-24T15:25:09.212Z,17.80
2017-10-24T15:27:36.733Z,17.70
2017-10-24T15:30:04.236Z,17.70
2017-10-24T15:32:31.895Z,17.70
2017-10-24T15:34:59.400Z,17.60
2017-10-24T15:37:26.899Z,17.60
2017-10-24T15:39:54.432Z,17.60
2017-10-24T15:42:22.698Z,17.50
2017-10-24T15:44:50.537Z,17.50
2017-10-24T15:47:18.033Z,17.50
2017-10-24T15:49:46.301Z,17.40
2017-10-24T15:52:14.581Z,17.30
2017-10-24T15:54:42.846Z,17.30
2017-10-24T15:57:10.383Z,17.30
2017-10-24T15:59:37.875Z,17.30
2017-10-24T16:02:06.290Z,17.20
2017-10-24T16:04:33.815Z,17.20
2017-10-24T16:07:02.151Z,17.20
2017-10-24T16:09:29.673Z,17.10
2017-10-24T16:11:57.180Z,17.10
2017-10-24T16:14:24.734Z,17.10
2017-10-24T16:16:53.002Z,17.00
2017-10-24T16:19:20.525Z,17.00
2017-10-24T16:21:48.068Z,17.00
2017-10-24T16:24:15.576Z,17.00
2017-10-24T16:26:43.904Z,16.90
2017-10-24T16:29:11.410Z,16.90
2017-10-24T16:31:38.937Z,16.80
2017-10-24T16:34:06.472Z,16.80
2017-10-24T16:36:34.020Z,16.70
2017-10-24T16:39:02.358Z,16.60
2017-10-24T16:41:29.869Z,16.60
2017-10-24T16:43:57.424Z,16.50
2017-10-24T16:46:25.011Z,16.40
2017-10-24T16:48:52.531Z,16.40
2017-10-24T16:51:20.812Z,16.20
2017-10-24T16:53:48.358Z,16.20
2017-10-24T16:56:15.893Z,16.10
2017-10-24T16:58:44.229Z,16.00
2017-10-24T17:01:11.754Z,16.00
2017-10-24T17:03:40.109Z,15.80
2017-10-24T17:06:07.642Z,15.80
2017-10-24T17:08:35.151Z,15.80
2017-10-24T17:11:02.688Z,15.70
2017-10-24T17:13:30.959Z,15.60
2017-10-24T17:15:58.501Z,15.60
2017-10-24T17:18:26.044Z,15.60
2017-10-24T17:20:53.589Z,15.50
2017-10-24T17:23:21.092Z,15.50
2017-10-24T17:25:48.598Z,15.50
2017-10-24T17:28:16.141Z,15.50
2017-10-24T17:30:43.634Z,15.40
2017-10-24T17:33:11.162Z,15.30
2017-10-24T17:35:38.678Z,15.20
2017-10-24T17:38:06.196Z,15.10
2017-10-24T17:40:33.684Z,15.10
2017-10-24T17:43:02.764Z,15.10
2017-10-24T17:45:30.266Z,15.10
2017-10-24T17:47:58.588Z,15.10
2017-10-24T17:50:26.120Z,15.00
2017-10-24T17:52:53.644Z,15.00
2017-10-24T17:55:21.949Z,14.80
2017-10-24T17:57:49.467Z,14.80
2017-10-24T18:00:17.760Z,14.70
2017-10-24T18:02:46.065Z,14.70
2017-10-24T18:05:13.597Z,14.60
2017-10-24T18:07:41.919Z,14.60
2017-10-24T18:10:09.445Z,14.60
2017-10-24T18:12:36.953Z,14.60
2017-10-24T18:15:04.490Z,14.60
2017-10-24T18:17:31.990Z,14.60
2017-10-24T18:19:59.542Z,14.60
2017-10-24T18:22:27.054Z,14.60
2017-10-24T18:24:54.568Z,14.60
2017-10-24T18:27:22.885Z,14.50
2017-10-24T18:29:50.405Z,14.50
2017-10-24T18:32:18.682Z,14.40
2017-10-24T18:34:46.952Z,14.30
2017-10-24T18:37:15.280Z,14.20
2017-10-24T18:39:42.808Z,14.20
2017-10-24T18:42:10.347Z,14.10
2017-10-24T18:44:38.762Z,14.10
2017-10-24T18:47:06.274Z,14.00
2017-10-24T18:49:34.580Z,14.00
2017-10-24T18:52:02.080Z,14.00
2017-10-24T18:54:29.641Z,14.00
2017-10-24T18:56:57.150Z,14.10
2017-10-24T18:59:24.702Z,14.10
2017-10-24T19:01:52.211Z,14.10
2017-10-24T19:04:19.730Z,14.10
2017-10-24T19:06:47.291Z,14.10
2017-10-24T19:09:14.825Z,14.10
2017-10-24T19:11:43.096Z,14.20
2017-10-24T19:14:11.386Z,14.20
2017-10-24T19:16:38.954Z,14.20
2017-10-24T19:19:06.491Z,14.20
2017-10-24T19:21:34.766Z,14.30
2017-10-24T19:24:03.064Z,14.30
2017-10-24T19:26:30.581Z,14.30
2017-10-24T19:28:58.122Z,14.30
2017-10-24T19:31:25.641Z,14.40
2017-10-24T19:33:53.181Z,14.40
2017-10-24T19:36:20.744Z,14.40
2017-10-24T19:38:48.336Z,14.40
2017-10-24T19:41:15.878Z,14.40
2017-10-24T19:43:43.380Z,14.40
2017-10-24T19:46:10.920Z,14.40
2017-10-24T19:48:38.458Z,14.40
2017-10-24T19:51:06.032Z,14.40
2017-10-24T19:53:33.533Z,14.40
2017-10-24T19:56:01.793Z,14.50
2017-10-24T19:58:29.349Z,14.50
2017-10-24T20:00:58.382Z,14.40
2017-10-24T20:03:25.917Z,14.40
2017-10-24T20:05:54.213Z,14.40
2017-10-24T20:08:21.774Z,14.40
2017-10-24T20:10:49.289Z,14.50
2017-10-24T20:13:17.759Z,14.50
2017-10-24T20:15:46.833Z,14.50
2017-10-24T20:18:14.337Z,14.50
2017-10-24T20:20:42.974Z,14.50
2017-10-24T20:23:10.507Z,14.50
2017-10-24T20:25:38.008Z,14.50
2017-10-24T20:28:05.533Z,14.60
2017-10-24T20:30:33.048Z,14.50
2017-10-24T20:33:00.595Z,14.50
2017-10-24T20:35:28.097Z,14.50
2017-10-24T20:37:55.741Z,14.50
2017-10-24T20:40:24.130Z,14.50
2017-10-24T20:42:51.629Z,14.50
2017-10-24T20:45:19.158Z,14.50
2017-10-24T20:47:46.686Z,14.50
2017-10-24T20:50:15.001Z,14.60
2017-10-24T20:52:42.501Z,14.50
2017-10-24T20:55:10.038Z,14.60
2017-10-24T20:57:37.547Z,14.60
2017-10-24T21:00:05.085Z,14.60
2017-10-24T21:02:33.378Z,14.50
2017-10-24T21:05:00.922Z,14.50
2017-10-24T21:07:29.229Z,14.40
2017-10-24T21:09:56.741Z,14.40
2017-10-24T21:12:24.311Z,14.40
2017-10-24T21:14:52.616Z,14.40
2017-10-24T21:17:20.161Z,14.40
2017-10-24T21:19:48.484Z,14.50
2017-10-24T21:22:15.994Z,14.50
2017-10-24T21:24:44.282Z,14.50
2017-10-24T21:27:11.773Z,14.50
2017-10-24T21:29:39.314Z,14.50
2017-10-24T21:32:06.814Z,14.50
2017-10-24T21:34:34.323Z,14.50
2017-10-24T21:37:01.851Z,14.60
2017-10-24T21:39:30.126Z,14.60
2017-10-24T21:41:58.424Z,14.60
2017-10-24T21:44:25.998Z,14.60
2017-10-24T21:46:53.521Z,14.60
2017-10-24T21:49:21.803Z,14.60
2017-10-24T21:51:49.352Z,14.60
2017-10-24T21:54:17.666Z,14.60
2017-10-24T21:56:45.210Z,14.60
2017-10-24T21:59:12.758Z,14.60
2017-10-24T22:01:40.327Z,14.60
2017-10-24T22:04:07.858Z,14.60
2017-10-24T22:06:36.133Z,14.60
2017-10-24T22:09:04.448Z,14.60
2017-10-24T22:11:31.953Z,14.60
2017-10-24T22:13:59.441Z,14.60
2017-10-24T22:16:26.981Z,14.60
2017-10-24T22:18:55.245Z,14.70
2017-10-24T22:21:22.852Z,14.70
2017-10-24T22:23:50.383Z,14.70
2017-10-24T22:26:18.655Z,14.80
2017-10-24T22:28:46.955Z,14.90
2017-10-24T22:31:14.485Z,14.90
2017-10-24T22:33:43.144Z,14.90
2017-10-24T22:36:10.640Z,14.90
2017-10-24T22:38:38.128Z,14.90
2017-10-24T22:41:05.755Z,14.90
2017-10-24T22:43:33.308Z,14.80
2017-10-24T22:46:00.819Z,14.70
2017-10-24T22:48:28.319Z,14.80
2017-10-24T22:50:56.633Z,14.80
2017-10-24T22:53:24.125Z,14.80
2017-10-24T22:55:52.436Z,14.70
2017-10-24T22:58:19.944Z,14.70
2017-10-24T23:00:47.439Z,14.80
2017-10-24T23:03:15.732Z,14.80
2017-10-24T23:05:43.232Z,14.80
2017-10-24T23:08:10.781Z,14.80
2017-10-24T23:10:38.284Z,14.80
2017-10-24T23:13:06.540Z,14.80
2017-10-24T23:15:35.565Z,14.80
2017-10-24T23:18:03.836Z,14.80
2017-10-24T23:20:31.361Z,14.80
2017-10-24T23:22:58.847Z,14.80
2017-10-24T23:25:26.407Z,14.80
2017-10-24T23:27:53.912Z,14.80
2017-10-24T23:30:21.429Z,14.80
2017-10-24T23:32:48.957Z,14.80
2017-10-24T23:35:16.468Z,14.70
2017-10-24T23:37:43.993Z,14.70
2017-10-24T23:40:11.497Z,14.70
2017-10-24T23:42:39.040Z,14.70
2017-10-24T23:45:06.557Z,14.70
2017-10-24T23:47:34.832Z,14.70
2017-10-24T23:50:03.124Z,14.80
2017-10-24T23:52:30.642Z,14.70
2017-10-24T23:54:58.161Z,14.80
2017-10-24T23:57:25.697Z,14.80
2017-10-24T23:59:53.260Z,14.80
